sensor_id;sensor_type;location;lat;lon;timestamp;pressure;altitude;pressure_sealevel;temperature;humidity
2549;BME280;1284;53.520;10.248;2022-11-20T00:01:06;100453.22;;;5.23;83.03
2549;BME280;1284;53.520;10.248;2022-11-20T00:03:32;100458.97;;;5.33;83.28
2549;BME280;1284;53.520;10.248;2022-11-20T00:06:02;100452.34;;;5.39;82.82
2549;BME280;1284;53.520;10.248;2022-11-20T00:08:28;100453.91;;;5.40;82.76
2549;BME280;1284;53.520;10.248;2022-11-20T00:10:54;100456.09;;;5.38;83.08
2549;BME280;1284;53.520;10.248;2022-11-20T00:13:19;100456.41;;;5.45;83.12
2549;BME280;1284;53.520;10.248;2022-11-20T00:15:45;100459.06;;;5.45;82.56
2549;BME280;1284;53.520;10.248;2022-11-20T00:18:10;100461.91;;;5.40;82.88
2549;BME280;1284;53.520;10.248;2022-11-20T00:20:35;100454.56;;;5.37;82.92
2549;BME280;1284;53.520;10.248;2022-11-20T00:23:01;100460.81;;;5.41;82.84
2549;BME280;1284;53.520;10.248;2022-11-20T00:25:26;100457.16;;;5.46;82.42
2549;BME280;1284;53.520;10.248;2022-11-20T00:27:52;100456.19;;;5.50;82.69
2549;BME280;1284;53.520;10.248;2022-11-20T00:30:17;100455.03;;;5.39;81.86
2549;BME280;1284;53.520;10.248;2022-11-20T00:32:43;100454.81;;;5.44;82.86
2549;BME280;1284;53.520;10.248;2022-11-20T00:35:08;100456.66;;;5.53;82.72
2549;BME280;1284;53.520;10.248;2022-11-20T00:37:34;100460.16;;;5.44;82.97
2549;BME280;1284;53.520;10.248;2022-11-20T00:39:59;100444.50;;;5.34;83.32
2549;BME280;1284;53.520;10.248;2022-11-20T00:42:24;100450.13;;;5.41;83.05
2549;BME280;1284;53.520;10.248;2022-11-20T00:44:50;100442.47;;;5.40;82.84
2549;BME280;1284;53.520;10.248;2022-11-20T00:47:15;100443.69;;;5.42;83.20
2549;BME280;1284;53.520;10.248;2022-11-20T00:49:41;100447.13;;;5.43;82.76
2549;BME280;1284;53.520;10.248;2022-11-20T00:52:09;100444.78;;;5.41;83.00
2549;BME280;1284;53.520;10.248;2022-11-20T00:54:35;100448.56;;;5.40;83.18
2549;BME280;1284;53.520;10.248;2022-11-20T00:57:00;100443.69;;;5.42;83.07
2549;BME280;1284;53.520;10.248;2022-11-20T00:59:25;100443.69;;;5.42;83.66
2549;BME280;1284;53.520;10.248;2022-11-20T01:01:51;100436.19;;;5.36;83.29
2549;BME280;1284;53.520;10.248;2022-11-20T01:04:16;100446.34;;;5.42;83.49
2549;BME280;1284;53.520;10.248;2022-11-20T01:06:41;100439.00;;;5.39;83.88
2549;BME280;1284;53.520;10.248;2022-11-20T01:09:12;100433.34;;;5.41;83.30
2549;BME280;1284;53.520;10.248;2022-11-20T01:11:41;100442.84;;;5.30;83.74
2549;BME280;1284;53.520;10.248;2022-11-20T01:14:10;100436.03;;;5.32;83.78
2549;BME280;1284;53.520;10.248;2022-11-20T01:16:38;100427.00;;;5.25;84.62
2549;BME280;1284;53.520;10.248;2022-11-20T01:19:07;100426.38;;;5.28;84.44
2549;BME280;1284;53.520;10.248;2022-11-20T01:21:36;100424.16;;;5.30;84.34
2549;BME280;1284;53.520;10.248;2022-11-20T01:24:03;100426.09;;;5.41;84.15
2549;BME280;1284;53.520;10.248;2022-11-20T01:26:31;100429.50;;;5.30;83.99
2549;BME280;1284;53.520;10.248;2022-11-20T01:28:57;100436.84;;;5.33;84.20
2549;BME280;1284;53.520;10.248;2022-11-20T01:31:26;100424.16;;;5.30;84.18
2549;BME280;1284;53.520;10.248;2022-11-20T01:33:54;100417.53;;;5.36;84.92
2549;BME280;1284;53.520;10.248;2022-11-20T01:36:22;100417.31;;;5.41;85.03
2549;BME280;1284;53.520;10.248;2022-11-20T01:38:51;100415.56;;;5.45;84.31
2549;BME280;1284;53.520;10.248;2022-11-20T01:41:17;100409.31;;;5.41;84.53
2549;BME280;1284;53.520;10.248;2022-11-20T01:44:10;100408.00;;;5.47;84.00
2549;BME280;1284;53.520;10.248;2022-11-20T01:46:38;100398.28;;;5.42;84.21
2549;BME280;1284;53.520;10.248;2022-11-20T01:49:18;100396.88;;;5.45;84.05
2549;BME280;1284;53.520;10.248;2022-11-20T01:51:59;100397.00;;;5.48;84.63
2549;BME280;1284;53.520;10.248;2022-11-20T01:55:09;100397.19;;;5.43;83.93
2549;BME280;1284;53.520;10.248;2022-11-20T01:57:15;100402.84;;;5.42;84.64
2549;BME280;1284;53.520;10.248;2022-11-20T01:59:46;100404.00;;;5.32;84.27
2549;BME280;1284;53.520;10.248;2022-11-20T02:02:18;100402.72;;;5.38;84.95
2549;BME280;1284;53.520;10.248;2022-11-20T02:04:44;100385.88;;;5.26;85.58
2549;BME280;1284;53.520;10.248;2022-11-20T02:07:10;100390.41;;;5.25;85.29
2549;BME280;1284;53.520;10.248;2022-11-20T02:09:35;100383.06;;;5.22;85.31
2549;BME280;1284;53.520;10.248;2022-11-20T02:12:01;100383.06;;;5.22;85.46
2549;BME280;1284;53.520;10.248;2022-11-20T02:14:28;100386.78;;;5.30;85.92
2549;BME280;1284;53.520;10.248;2022-11-20T02:16:55;100383.56;;;5.36;85.75
2549;BME280;1284;53.520;10.248;2022-11-20T02:19:29;100382.81;;;5.36;85.60
2549;BME280;1284;53.520;10.248;2022-11-20T02:22:11;100373.16;;;5.43;85.20
2549;BME280;1284;53.520;10.248;2022-11-20T02:24:41;100379.16;;;5.40;85.74
2549;BME280;1284;53.520;10.248;2022-11-20T02:27:12;100384.09;;;5.50;84.80
2549;BME280;1284;53.520;10.248;2022-11-20T02:29:51;100372.31;;;5.52;85.18
2549;BME280;1284;53.520;10.248;2022-11-20T02:32:21;100375.75;;;5.52;85.19
2549;BME280;1284;53.520;10.248;2022-11-20T02:34:47;100385.53;;;5.48;85.44
2549;BME280;1284;53.520;10.248;2022-11-20T02:37:13;100374.19;;;5.51;84.81
2549;BME280;1284;53.520;10.248;2022-11-20T02:39:40;100368.75;;;5.47;85.47
2549;BME280;1284;53.520;10.248;2022-11-20T02:42:05;100375.25;;;5.38;85.39
2549;BME280;1284;53.520;10.248;2022-11-20T02:44:31;100372.25;;;5.39;86.13
2549;BME280;1284;53.520;10.248;2022-11-20T02:46:57;100366.38;;;5.46;85.35
2549;BME280;1284;53.520;10.248;2022-11-20T02:49:24;100367.16;;;5.46;85.79
2549;BME280;1284;53.520;10.248;2022-11-20T02:51:49;100364.75;;;5.33;86.60
2549;BME280;1284;53.520;10.248;2022-11-20T02:54:18;100358.47;;;5.37;86.31
2549;BME280;1284;53.520;10.248;2022-11-20T02:56:43;100367.50;;;5.45;86.20
2549;BME280;1284;53.520;10.248;2022-11-20T02:59:09;100357.16;;;5.43;86.25
2549;BME280;1284;53.520;10.248;2022-11-20T03:01:35;100360.78;;;5.39;86.44
2549;BME280;1284;53.520;10.248;2022-11-20T03:04:01;100351.03;;;5.43;86.19
2549;BME280;1284;53.520;10.248;2022-11-20T03:06:26;100355.56;;;5.42;86.30
2549;BME280;1284;53.520;10.248;2022-11-20T03:08:52;100352.38;;;5.28;86.89
2549;BME280;1284;53.520;10.248;2022-11-20T03:11:17;100350.31;;;5.34;87.13
2549;BME280;1284;53.520;10.248;2022-11-20T03:13:42;100357.53;;;5.33;87.10
2549;BME280;1284;53.520;10.248;2022-11-20T03:16:12;100355.97;;;5.32;86.90
2549;BME280;1284;53.520;10.248;2022-11-20T03:18:39;100353.63;;;5.31;86.66
2549;BME280;1284;53.520;10.248;2022-11-20T03:21:05;100359.53;;;5.36;86.77
2549;BME280;1284;53.520;10.248;2022-11-20T03:23:32;100356.56;;;5.38;86.85
2549;BME280;1284;53.520;10.248;2022-11-20T03:26:27;100362.09;;;5.33;87.31
2549;BME280;1284;53.520;10.248;2022-11-20T03:28:55;100352.31;;;5.37;86.95
2549;BME280;1284;53.520;10.248;2022-11-20T03:31:26;100357.41;;;5.30;86.98
2549;BME280;1284;53.520;10.248;2022-11-20T03:33:52;100357.53;;;5.33;87.11
2549;BME280;1284;53.520;10.248;2022-11-20T03:36:19;100349.31;;;5.38;86.55
2549;BME280;1284;53.520;10.248;2022-11-20T03:38:45;100350.22;;;5.42;86.78
2549;BME280;1284;53.520;10.248;2022-11-20T03:41:19;100347.09;;;5.40;86.99
2549;BME280;1284;53.520;10.248;2022-11-20T03:43:53;100348.41;;;5.34;86.89
2549;BME280;1284;53.520;10.248;2022-11-20T03:46:19;100352.72;;;5.27;87.52
2549;BME280;1284;53.520;10.248;2022-11-20T03:48:44;100343.75;;;5.31;87.27
2549;BME280;1284;53.520;10.248;2022-11-20T03:53:37;100341.97;;;5.35;87.58
2549;BME280;1284;53.520;10.248;2022-11-20T03:56:03;100344.31;;;5.37;87.69
2549;BME280;1284;53.520;10.248;2022-11-20T03:58:29;100329.28;;;5.32;87.21
2549;BME280;1284;53.520;10.248;2022-11-20T04:00:54;100326.81;;;5.27;87.96
2549;BME280;1284;53.520;10.248;2022-11-20T04:03:20;100322.00;;;5.21;88.25
2549;BME280;1284;53.520;10.248;2022-11-20T04:05:45;100325.69;;;5.28;87.68
2549;BME280;1284;53.520;10.248;2022-11-20T04:08:11;100317.03;;;5.31;87.26
2549;BME280;1284;53.520;10.248;2022-11-20T04:10:36;100326.94;;;5.31;87.77
2549;BME280;1284;53.520;10.248;2022-11-20T04:13:01;100322.38;;;5.31;87.63
2549;BME280;1284;53.520;10.248;2022-11-20T04:15:27;100322.25;;;5.28;87.95
2549;BME280;1284;53.520;10.248;2022-11-20T04:17:53;100327.28;;;5.29;87.51
2549;BME280;1284;53.520;10.248;2022-11-20T04:20:19;100326.03;;;5.27;86.95
2549;BME280;1284;53.520;10.248;2022-11-20T04:22:44;100325.78;;;5.20;87.89
2549;BME280;1284;53.520;10.248;2022-11-20T04:25:10;100319.88;;;5.14;87.88
2549;BME280;1284;53.520;10.248;2022-11-20T04:27:35;100323.03;;;5.28;87.50
2549;BME280;1284;53.520;10.248;2022-11-20T04:30:01;100316.59;;;5.29;87.03
2549;BME280;1284;53.520;10.248;2022-11-20T04:32:26;100315.81;;;5.29;87.91
2549;BME280;1284;53.520;10.248;2022-11-20T04:34:51;100316.72;;;5.33;87.04
2549;BME280;1284;53.520;10.248;2022-11-20T04:37:17;100315.69;;;5.25;87.45
2549;BME280;1284;53.520;10.248;2022-11-20T04:39:42;100320.44;;;5.20;87.70
2549;BME280;1284;53.520;10.248;2022-11-20T04:42:09;100312.56;;;5.23;87.77
2549;BME280;1284;53.520;10.248;2022-11-20T04:44:53;100313.25;;;5.32;87.51
2549;BME280;1284;53.520;10.248;2022-11-20T04:47:18;100314.03;;;5.33;87.23
2549;BME280;1284;53.520;10.248;2022-11-20T04:49:44;100313.59;;;5.31;87.06
2549;BME280;1284;53.520;10.248;2022-11-20T04:52:09;100315.28;;;5.35;87.30
2549;BME280;1284;53.520;10.248;2022-11-20T04:54:34;100313.84;;;5.38;87.49
2549;BME280;1284;53.520;10.248;2022-11-20T04:57:00;100312.63;;;5.35;87.61
2549;BME280;1284;53.520;10.248;2022-11-20T04:59:25;100309.50;;;5.33;87.60
2549;BME280;1284;53.520;10.248;2022-11-20T05:01:51;100316.06;;;5.36;87.71
2549;BME280;1284;53.520;10.248;2022-11-20T05:04:16;100317.63;;;5.37;87.78
2549;BME280;1284;53.520;10.248;2022-11-20T05:06:41;100306.38;;;5.31;87.39
2549;BME280;1284;53.520;10.248;2022-11-20T05:09:07;100307.81;;;5.29;87.44
2549;BME280;1284;53.520;10.248;2022-11-20T05:11:32;100297.25;;;5.32;87.71
2549;BME280;1284;53.520;10.248;2022-11-20T05:13:59;100294.84;;;5.39;87.09
2549;BME280;1284;53.520;10.248;2022-11-20T05:16:25;100284.03;;;5.36;86.50
2549;BME280;1284;53.520;10.248;2022-11-20T05:18:51;100292.13;;;5.27;86.71
2549;BME280;1284;53.520;10.248;2022-11-20T05:21:18;100279.56;;;5.28;87.40
2549;BME280;1284;53.520;10.248;2022-11-20T05:23:44;100286.84;;;5.19;87.18
2549;BME280;1284;53.520;10.248;2022-11-20T05:26:28;100281.38;;;5.15;88.02
2549;BME280;1284;53.520;10.248;2022-11-20T05:28:53;100284.72;;;5.12;87.37
2549;BME280;1284;53.520;10.248;2022-11-20T05:31:21;100277.63;;;5.16;87.97
2549;BME280;1284;53.520;10.248;2022-11-20T05:33:47;100279.75;;;5.23;87.68
2549;BME280;1284;53.520;10.248;2022-11-20T05:36:14;100284.31;;;5.22;87.31
2549;BME280;1284;53.520;10.248;2022-11-20T05:38:40;100273.94;;;5.09;87.59
2549;BME280;1284;53.520;10.248;2022-11-20T05:41:17;100276.31;;;5.02;88.56
2549;BME280;1284;53.520;10.248;2022-11-20T05:43:45;100275.56;;;5.01;88.28
2549;BME280;1284;53.520;10.248;2022-11-20T05:46:13;100267.00;;;5.08;88.68
2549;BME280;1284;53.520;10.248;2022-11-20T05:48:40;100266.28;;;5.19;87.71
2549;BME280;1284;53.520;10.248;2022-11-20T05:51:07;100267.34;;;5.06;87.88
2549;BME280;1284;53.520;10.248;2022-11-20T05:53:34;100267.34;;;5.06;88.38
2549;BME280;1284;53.520;10.248;2022-11-20T05:56:02;100261.94;;;5.15;88.22
2549;BME280;1284;53.520;10.248;2022-11-20T05:58:29;100254.63;;;4.91;88.27
2549;BME280;1284;53.520;10.248;2022-11-20T06:00:55;100257.97;;;5.00;88.31
2549;BME280;1284;53.520;10.248;2022-11-20T06:03:27;100256.56;;;4.82;89.16
2549;BME280;1284;53.520;10.248;2022-11-20T06:05:53;100265.00;;;4.84;88.96
2549;BME280;1284;53.520;10.248;2022-11-20T06:08:18;100268.78;;;4.83;89.12
2549;BME280;1284;53.520;10.248;2022-11-20T06:10:44;100259.09;;;4.79;89.03
2549;BME280;1284;53.520;10.248;2022-11-20T06:13:09;100270.75;;;4.95;89.42
2549;BME280;1284;53.520;10.248;2022-11-20T06:15:38;100258.31;;;4.78;89.55
2549;BME280;1284;53.520;10.248;2022-11-20T06:18:03;100261.44;;;4.80;90.08
2549;BME280;1284;53.520;10.248;2022-11-20T06:20:28;100261.19;;;4.73;90.05
2549;BME280;1284;53.520;10.248;2022-11-20T06:22:54;100259.31;;;4.74;90.35
2549;BME280;1284;53.520;10.248;2022-11-20T06:25:19;100269.94;;;4.53;91.13
2549;BME280;1284;53.520;10.248;2022-11-20T06:27:45;100257.06;;;-144.12;91.90
2549;BME280;1284;53.520;10.248;2022-11-20T06:30:11;100260.63;;;4.38;92.60
2549;BME280;1284;53.520;10.248;2022-11-20T06:32:36;100257.53;;;4.57;92.30
2549;BME280;1284;53.520;10.248;2022-11-20T06:35:02;100255.50;;;4.54;91.88
2549;BME280;1284;53.520;10.248;2022-11-20T06:37:27;100256.97;;;4.72;91.70
2549;BME280;1284;53.520;10.248;2022-11-20T06:39:53;100257.88;;;4.76;91.51
2549;BME280;1284;53.520;10.248;2022-11-20T06:42:18;100260.72;;;4.92;90.53
2549;BME280;1284;53.520;10.248;2022-11-20T06:44:44;100260.41;;;4.93;90.63
2549;BME280;1284;53.520;10.248;2022-11-20T06:47:09;100263.66;;;4.99;90.21
2549;BME280;1284;53.520;10.248;2022-11-20T06:49:34;100260.97;;;4.99;89.79
2549;BME280;1284;53.520;10.248;2022-11-20T06:52:02;100250.75;;;5.01;89.55
2549;BME280;1284;53.520;10.248;2022-11-20T06:54:27;100246.63;;;5.03;89.70
2549;BME280;1284;53.520;10.248;2022-11-20T06:56:53;100249.75;;;5.05;89.87
2549;BME280;1284;53.520;10.248;2022-11-20T06:59:18;100249.66;;;5.02;89.53
2549;BME280;1284;53.520;10.248;2022-11-20T07:01:44;100250.50;;;5.14;89.20
2549;BME280;1284;53.520;10.248;2022-11-20T07:04:09;100243.78;;;5.08;88.60
2549;BME280;1284;53.520;10.248;2022-11-20T07:06:34;100236.63;;;5.00;89.09
2549;BME280;1284;53.520;10.248;2022-11-20T07:09:00;100244.44;;;5.05;88.93
2549;BME280;1284;53.520;10.248;2022-11-20T07:11:26;100259.13;;;5.11;89.03
2549;BME280;1284;53.520;10.248;2022-11-20T07:13:52;100254.06;;;4.98;89.55
2549;BME280;1284;53.520;10.248;2022-11-20T07:16:17;100260.31;;;5.02;89.28
2549;BME280;1284;53.520;10.248;2022-11-20T07:18:43;100241.56;;;5.10;89.57
2549;BME280;1284;53.520;10.248;2022-11-20T07:21:09;100244.56;;;5.09;89.04
2549;BME280;1284;53.520;10.248;2022-11-20T07:23:36;100254.78;;;5.07;89.31
2549;BME280;1284;53.520;10.248;2022-11-20T07:26:06;100257.06;;;4.96;90.09
2549;BME280;1284;53.520;10.248;2022-11-20T07:28:32;100266.69;;;5.09;89.66
2549;BME280;1284;53.520;10.248;2022-11-20T07:30:57;100255.16;;;5.17;89.68
2549;BME280;1284;53.520;10.248;2022-11-20T07:33:23;100260.94;;;5.19;89.77
2549;BME280;1284;53.520;10.248;2022-11-20T07:38:14;100243.16;;;5.23;89.62
2549;BME280;1284;53.520;10.248;2022-11-20T07:40:39;100247.53;;;5.28;89.26
2549;BME280;1284;53.520;10.248;2022-11-20T07:43:05;100250.09;;;5.36;88.91
2549;BME280;1284;53.520;10.248;2022-11-20T07:45:30;100247.66;;;5.31;88.40
2549;BME280;1284;53.520;10.248;2022-11-20T07:47:55;100250.09;;;5.24;88.75
2549;BME280;1284;53.520;10.248;2022-11-20T07:50:21;100263.28;;;5.21;89.07
2549;BME280;1284;53.520;10.248;2022-11-20T07:52:46;100253.97;;;5.27;88.83
2549;BME280;1284;53.520;10.248;2022-11-20T07:55:12;100259.63;;;5.25;89.08
2549;BME280;1284;53.520;10.248;2022-11-20T07:57:38;100255.19;;;5.29;88.14
2549;BME280;1284;53.520;10.248;2022-11-20T08:00:05;100255.19;;;5.29;88.00
2549;BME280;1284;53.520;10.248;2022-11-20T08:02:38;100246.41;;;5.29;87.83
2549;BME280;1284;53.520;10.248;2022-11-20T08:05:10;100258.28;;;5.19;88.38
2549;BME280;1284;53.520;10.248;2022-11-20T08:07:40;100248.50;;;5.23;88.24
2549;BME280;1284;53.520;10.248;2022-11-20T08:10:07;100259.13;;;5.32;87.96
2549;BME280;1284;53.520;10.248;2022-11-20T08:12:33;100257.88;;;5.29;88.19
2549;BME280;1284;53.520;10.248;2022-11-20T08:15:18;100252.88;;;5.28;87.89
2549;BME280;1284;53.520;10.248;2022-11-20T08:17:43;100252.31;;;5.34;87.71
2549;BME280;1284;53.520;10.248;2022-11-20T08:20:09;100249.13;;;5.41;87.59
2549;BME280;1284;53.520;10.248;2022-11-20T08:22:34;100251.22;;;5.35;87.39
2549;BME280;1284;53.520;10.248;2022-11-20T08:25:00;100248.56;;;5.35;87.15
2549;BME280;1284;53.520;10.248;2022-11-20T08:27:25;100254.00;;;5.39;86.96
2549;BME280;1284;53.520;10.248;2022-11-20T08:29:51;100249.47;;;5.39;87.26
2549;BME280;1284;53.520;10.248;2022-11-20T08:32:16;100243.44;;;5.42;87.11
2549;BME280;1284;53.520;10.248;2022-11-20T08:34:42;100253.47;;;5.45;87.25
2549;BME280;1284;53.520;10.248;2022-11-20T08:37:07;100248.13;;;5.45;86.74
2549;BME280;1284;53.520;10.248;2022-11-20T08:39:33;100257.16;;;5.53;86.80
2549;BME280;1284;53.520;10.248;2022-11-20T08:41:58;100250.50;;;5.59;86.60
2549;BME280;1284;53.520;10.248;2022-11-20T08:44:24;100247.69;;;5.56;85.78
2549;BME280;1284;53.520;10.248;2022-11-20T08:46:50;100255.25;;;5.53;86.36
2549;BME280;1284;53.520;10.248;2022-11-20T08:49:15;100258.25;;;5.52;86.21
2549;BME280;1284;53.520;10.248;2022-11-20T08:51:41;100251.72;;;5.62;86.19
2549;BME280;1284;53.520;10.248;2022-11-20T08:54:07;100253.72;;;5.53;85.30
2549;BME280;1284;53.520;10.248;2022-11-20T08:56:33;100257.06;;;5.49;86.46
2549;BME280;1284;53.520;10.248;2022-11-20T08:58:59;100254.94;;;5.55;85.85
2549;BME280;1284;53.520;10.248;2022-11-20T09:01:25;100249.84;;;5.62;85.56
2549;BME280;1284;53.520;10.248;2022-11-20T09:03:51;100252.88;;;5.73;85.46
2549;BME280;1284;53.520;10.248;2022-11-20T09:06:17;100256.19;;;5.70;85.53
2549;BME280;1284;53.520;10.248;2022-11-20T09:08:43;100259.66;;;5.70;85.90
2549;BME280;1284;53.520;10.248;2022-11-20T09:11:09;100265.31;;;5.69;85.55
2549;BME280;1284;53.520;10.248;2022-11-20T09:13:35;100263.28;;;5.66;84.99
2549;BME280;1284;53.520;10.248;2022-11-20T09:16:06;100263.63;;;5.64;85.12
2549;BME280;1284;53.520;10.248;2022-11-20T09:18:34;100256.28;;;5.73;84.77
2549;BME280;1284;53.520;10.248;2022-11-20T09:21:05;100256.00;;;5.75;85.53
2549;BME280;1284;53.520;10.248;2022-11-20T09:23:33;100250.50;;;5.71;86.34
2549;BME280;1284;53.520;10.248;2022-11-20T09:26:19;100245.50;;;5.70;87.42
2549;BME280;1284;53.520;10.248;2022-11-20T09:28:45;100254.47;;;5.86;86.92
2549;BME280;1284;53.520;10.248;2022-11-20T09:31:23;100252.47;;;5.95;86.74
2549;BME280;1284;53.520;10.248;2022-11-20T09:33:49;100251.78;;;6.10;87.29
2549;BME280;1284;53.520;10.248;2022-11-20T09:36:15;100250.56;;;6.19;87.01
2549;BME280;1284;53.520;10.248;2022-11-20T09:38:42;100243.22;;;6.16;86.66
2549;BME280;1284;53.520;10.248;2022-11-20T09:41:26;100245.09;;;6.16;86.22
2549;BME280;1284;53.520;10.248;2022-11-20T09:47:00;100246.34;;;6.30;86.70
2549;BME280;1284;53.520;10.248;2022-11-20T09:52:33;100247.09;;;6.31;86.35
2549;BME280;1284;53.520;10.248;2022-11-20T09:55:03;100253.03;;;6.36;86.47
2549;BME280;1284;53.520;10.248;2022-11-20T09:57:35;100257.22;;;6.50;86.47
2549;BME280;1284;53.520;10.248;2022-11-20T10:00:04;100264.78;;;6.60;86.29
2549;BME280;1284;53.520;10.248;2022-11-20T10:02:53;100253.06;;;6.64;86.27
2549;BME280;1284;53.520;10.248;2022-11-20T10:05:43;100246.97;;;6.52;85.70
2549;BME280;1284;53.520;10.248;2022-11-20T10:26:22;100248.13;;;6.26;85.24
2549;BME280;1284;53.520;10.248;2022-11-20T10:29:07;100241.34;;;6.17;85.26
2549;BME280;1284;53.520;10.248;2022-11-20T10:31:38;100235.09;;;6.13;86.25
2549;BME280;1284;53.520;10.248;2022-11-20T10:34:20;100236.53;;;6.22;86.05
2549;BME280;1284;53.520;10.248;2022-11-20T10:36:52;100234.06;;;6.29;85.80
2549;BME280;1284;53.520;10.248;2022-11-20T10:39:44;100231.63;;;6.36;85.96
2549;BME280;1284;53.520;10.248;2022-11-20T10:42:20;100234.06;;;6.29;85.27
2549;BME280;1284;53.520;10.248;2022-11-20T10:44:52;100233.72;;;6.31;85.97
2549;BME280;1284;53.520;10.248;2022-11-20T10:47:27;100243.06;;;6.37;85.82
2549;BME280;1284;53.520;10.248;2022-11-20T10:49:57;100231.94;;;6.35;85.86
2549;BME280;1284;53.520;10.248;2022-11-20T10:52:56;100236.84;;;6.45;84.98
2549;BME280;1284;53.520;10.248;2022-11-20T11:00:34;100237.38;;;6.51;85.01
2549;BME280;1284;53.520;10.248;2022-11-20T11:02:59;100236.03;;;6.45;85.20
2549;BME280;1284;53.520;10.248;2022-11-20T11:05:36;100229.41;;;6.38;84.81
2549;BME280;1284;53.520;10.248;2022-11-20T11:08:09;100235.84;;;6.50;84.82
2549;BME280;1284;53.520;10.248;2022-11-20T11:10:56;100228.16;;;6.48;84.65
2549;BME280;1284;53.520;10.248;2022-11-20T11:13:25;100229.94;;;6.44;84.33
2549;BME280;1284;53.520;10.248;2022-11-20T11:15:51;100220.56;;;6.50;84.07
2549;BME280;1284;53.520;10.248;2022-11-20T11:20:53;100218.00;;;6.42;83.50
2549;BME280;1284;53.520;10.248;2022-11-20T11:23:40;100207.22;;;6.38;83.78
2549;BME280;1284;53.520;10.248;2022-11-20T11:26:20;100209.91;;;6.38;83.39
2549;BME280;1284;53.520;10.248;2022-11-20T11:28:57;100210.00;;;6.42;83.28
2549;BME280;1284;53.520;10.248;2022-11-20T11:31:29;100215.22;;;6.50;82.70
2549;BME280;1284;53.520;10.248;2022-11-20T11:34:15;100214.19;;;6.55;82.80
2549;BME280;1284;53.520;10.248;2022-11-20T11:36:42;100207.28;;;6.54;81.67
2549;BME280;1284;53.520;10.248;2022-11-20T11:39:18;100205.28;;;6.51;81.63
2549;BME280;1284;53.520;10.248;2022-11-20T11:41:45;100205.41;;;6.54;81.39
2549;BME280;1284;53.520;10.248;2022-11-20T11:47:02;100202.47;;;6.59;80.01
2549;BME280;1284;53.520;10.248;2022-11-20T11:49:28;100199.81;;;6.59;80.26
2549;BME280;1284;53.520;10.248;2022-11-20T11:52:02;100199.56;;;6.64;79.88
2549;BME280;1284;53.520;10.248;2022-11-20T11:54:35;100195.75;;;6.77;80.56
2549;BME280;1284;53.520;10.248;2022-11-20T11:57:12;100201.81;;;6.90;80.29
2549;BME280;1284;53.520;10.248;2022-11-20T12:02:25;100206.38;;;6.62;79.22
2549;BME280;1284;53.520;10.248;2022-11-20T12:05:03;100209.81;;;6.62;78.63
2549;BME280;1284;53.520;10.248;2022-11-20T12:07:41;100207.47;;;6.73;77.91
2549;BME280;1284;53.520;10.248;2022-11-20T12:10:15;100203.13;;;6.68;78.12
2549;BME280;1284;53.520;10.248;2022-11-20T12:12:48;100209.25;;;6.69;77.83
2549;BME280;1284;53.520;10.248;2022-11-20T12:15:23;100209.34;;;6.72;77.54
2549;BME280;1284;53.520;10.248;2022-11-20T12:17:50;100210.13;;;6.73;76.81
2549;BME280;1284;53.520;10.248;2022-11-20T12:20:16;100201.13;;;6.65;77.34
2549;BME280;1284;53.520;10.248;2022-11-20T12:22:44;100206.13;;;6.67;77.88
2549;BME280;1284;53.520;10.248;2022-11-20T12:25:21;100208.19;;;6.58;77.68
2549;BME280;1284;53.520;10.248;2022-11-20T12:30:22;100216.31;;;6.49;77.97
2549;BME280;1284;53.520;10.248;2022-11-20T12:38:15;100192.97;;;6.34;79.13
2549;BME280;1284;53.520;10.248;2022-11-20T12:41:05;100194.72;;;6.42;78.33
2549;BME280;1284;53.520;10.248;2022-11-20T12:43:53;100187.25;;;6.48;78.64
2549;BME280;1284;53.520;10.248;2022-11-20T12:46:46;100194.59;;;6.51;78.31
2549;BME280;1284;53.520;10.248;2022-11-20T12:55:03;100168.97;;;6.50;78.32
2549;BME280;1284;53.520;10.248;2022-11-20T12:57:46;100170.19;;;6.52;78.07
2549;BME280;1284;53.520;10.248;2022-11-20T13:00:20;100162.94;;;6.53;78.08
2549;BME280;1284;53.520;10.248;2022-11-20T13:05:31;100170.50;;;6.51;77.47
2549;BME280;1284;53.520;10.248;2022-11-20T13:08:02;100169.63;;;6.47;76.29
2549;BME280;1284;53.520;10.248;2022-11-20T13:10:46;100176.00;;;6.42;76.86
2549;BME280;1284;53.520;10.248;2022-11-20T13:13:25;100176.06;;;6.18;77.83
2549;BME280;1284;53.520;10.248;2022-11-20T13:18:52;100188.06;;;6.36;78.55
2549;BME280;1284;53.520;10.248;2022-11-20T13:21:34;100188.03;;;6.48;78.34
2549;BME280;1284;53.520;10.248;2022-11-20T13:24:19;100181.34;;;6.54;77.69
2549;BME280;1284;53.520;10.248;2022-11-20T13:26:46;100181.97;;;6.63;78.10
2549;BME280;1284;53.520;10.248;2022-11-20T13:29:19;100175.94;;;6.66;77.43
2549;BME280;1284;53.520;10.248;2022-11-20T13:31:46;100174.22;;;6.74;77.59
2549;BME280;1284;53.520;10.248;2022-11-20T13:34:23;100165.97;;;6.79;76.66
2549;BME280;1284;53.520;10.248;2022-11-20T13:36:52;100170.53;;;6.78;76.81
2549;BME280;1284;53.520;10.248;2022-11-20T13:39:30;100154.47;;;6.78;76.78
2549;BME280;1284;53.520;10.248;2022-11-20T13:44:48;100156.75;;;6.64;76.27
2549;BME280;1284;53.520;10.248;2022-11-20T13:47:27;100151.84;;;6.38;76.71
2549;BME280;1284;53.520;10.248;2022-11-20T13:49:54;100156.81;;;6.52;76.87
2549;BME280;1284;53.520;10.248;2022-11-20T13:59:58;100141.25;;;6.70;76.00
2549;BME280;1284;53.520;10.248;2022-11-20T14:02:28;100152.09;;;6.61;76.32
2549;BME280;1284;53.520;10.248;2022-11-20T14:04:58;100133.63;;;6.56;75.90
2549;BME280;1284;53.520;10.248;2022-11-20T14:07:27;100136.50;;;6.63;76.30
2549;BME280;1284;53.520;10.248;2022-11-20T14:09:57;100139.34;;;6.70;75.91
2549;BME280;1284;53.520;10.248;2022-11-20T14:12:30;100139.78;;;6.72;76.07
2549;BME280;1284;53.520;10.248;2022-11-20T14:14:56;100129.09;;;6.72;75.72
2549;BME280;1284;53.520;10.248;2022-11-20T14:17:29;100135.56;;;6.71;75.34
2549;BME280;1284;53.520;10.248;2022-11-20T14:19:58;100135.13;;;6.69;75.93
2549;BME280;1284;53.520;10.248;2022-11-20T14:22:26;100132.94;;;6.59;76.39
2549;BME280;1284;53.520;10.248;2022-11-20T14:27:34;100127.84;;;6.54;76.65
2549;BME280;1284;53.520;10.248;2022-11-20T14:30:02;100121.03;;;6.57;76.45
2549;BME280;1284;53.520;10.248;2022-11-20T14:32:29;100111.19;;;6.61;76.94
2549;BME280;1284;53.520;10.248;2022-11-20T14:35:00;100116.16;;;6.47;76.76